Grimsley, Tennessee
Current Conditions -  °F | °C
As of 10:53 AM on Tuesday 27 Jan 2015 (Local Time) from KCSV Reporting Station
Overcast Overcast  
Wind Chill: -4°   Ceiling: 700
Heat Index:   Visibility: 10mi
Dew Point: -2°   Wind: 7mph
Humidity: 85%   Direction: 360°N
Pressure: 29.98"   Gusts: NA
Location:  36.27°N, 84.98°W
Report Text: KCSV 271653Z AUTO 36006KT 10SM OVC007 00/M02 A2998 RMK AO2 SLP166 T00001022
Loading
Personal Weather Stations






























Interactive Weather Map New forecast layout! Learn more

10-Day Weather Forecast

Advertisements
Track Severe Weather on mobile